createdAt,value
2019-02-16T00:01:09.623Z,9.83
2019-02-16T00:03:41.923Z,9.00
2019-02-16T00:06:14.321Z,10.25
2019-02-16T00:08:46.825Z,9.03
2019-02-16T00:11:19.282Z,11.15
2019-02-16T00:13:52.167Z,7.28
2019-02-16T00:16:25.509Z,8.65
2019-02-16T00:18:57.699Z,10.77
2019-02-16T00:21:30.190Z,9.83
2019-02-16T00:24:02.540Z,9.58
2019-02-16T00:26:35.527Z,7.30
2019-02-16T00:29:07.921Z,7.25
2019-02-16T00:31:40.010Z,8.13
2019-02-16T00:34:12.067Z,10.60
2019-02-16T00:36:44.505Z,8.53
2019-02-16T00:39:17.197Z,8.43
2019-02-16T00:41:49.690Z,10.25
2019-02-16T00:44:22.868Z,6.42
2019-02-16T00:46:55.731Z,8.30
2019-02-16T00:49:28.567Z,6.67
2019-02-16T00:52:00.658Z,8.93
2019-02-16T00:54:32.739Z,8.53
2019-02-16T00:57:05.344Z,9.43
2019-02-16T00:59:37.759Z,11.12
2019-02-16T01:02:10.125Z,8.33
2019-02-16T01:04:42.335Z,6.63
2019-02-16T01:07:15.058Z,10.65
2019-02-16T01:09:48.071Z,7.53
2019-02-16T01:12:20.468Z,7.45
2019-02-16T01:14:53.200Z,7.10
2019-02-16T01:17:26.072Z,7.95
2019-02-16T01:19:58.488Z,5.33
2019-02-16T01:22:31.281Z,13.15
2019-02-16T01:25:03.726Z,7.12
2019-02-16T01:27:36.103Z,6.37
2019-02-16T01:30:11.301Z,8.87
2019-02-16T01:33:04.273Z,7.60
2019-02-16T01:35:36.688Z,8.60
2019-02-16T01:38:09.490Z,8.33
2019-02-16T01:40:41.832Z,9.65
2019-02-16T01:43:13.905Z,5.77
2019-02-16T01:45:46.502Z,6.60
2019-02-16T01:48:18.869Z,10.05
2019-02-16T01:50:51.465Z,5.12
2019-02-16T01:53:23.848Z,6.85
2019-02-16T01:55:56.622Z,8.43
2019-02-16T01:58:29.195Z,8.23
2019-02-16T02:01:01.631Z,10.13
2019-02-16T02:03:34.190Z,7.85
2019-02-16T02:06:06.554Z,8.88
2019-02-16T02:08:38.959Z,7.40
2019-02-16T02:11:11.287Z,12.13
2019-02-16T02:13:43.588Z,7.70
2019-02-16T02:16:15.913Z,6.97
2019-02-16T02:18:48.384Z,6.70
2019-02-16T02:21:21.090Z,6.08
2019-02-16T02:23:53.843Z,7.00
2019-02-16T02:26:26.251Z,7.08
2019-02-16T02:28:59.029Z,5.92
2019-02-16T02:31:31.385Z,8.35
2019-02-16T02:34:04.105Z,9.15
2019-02-16T02:36:36.447Z,7.90
2019-02-16T02:39:08.948Z,6.40
2019-02-16T02:41:41.410Z,5.10
2019-02-16T02:44:13.801Z,3.95
2019-02-16T02:46:46.217Z,8.30
2019-02-16T02:49:18.567Z,7.15
2019-02-16T02:51:52.448Z,9.40
2019-02-16T02:54:24.755Z,7.73
2019-02-16T02:56:56.831Z,11.90
2019-02-16T02:59:29.206Z,4.83
2019-02-16T03:02:01.551Z,10.13
2019-02-16T03:04:34.148Z,6.77
2019-02-16T03:07:06.571Z,6.87
2019-02-16T03:09:39.482Z,8.70
2019-02-16T03:12:11.842Z,7.10
2019-02-16T03:14:44.340Z,6.92
2019-02-16T03:17:16.709Z,4.40
2019-02-16T03:19:49.158Z,7.87
2019-02-16T03:22:21.558Z,5.00
2019-02-16T03:24:54.567Z,4.85
2019-02-16T03:28:13.681Z,6.15
2019-02-16T03:32:06.537Z,7.50
2019-02-16T03:35:34.485Z,8.63
2019-02-16T03:38:47.522Z,5.57
2019-02-16T03:41:20.017Z,7.70
2019-02-16T03:43:52.371Z,7.92
2019-02-16T03:46:24.734Z,5.30
2019-02-16T03:48:57.321Z,4.42
2019-02-16T03:51:31.336Z,4.28
2019-02-16T03:54:03.409Z,7.23
2019-02-16T03:56:35.604Z,4.87
2019-02-16T03:59:08.003Z,12.05
2019-02-16T04:01:41.348Z,6.05
2019-02-16T04:04:13.435Z,4.03
2019-02-16T04:06:45.742Z,11.80
2019-02-16T04:09:18.195Z,9.53
2019-02-16T04:11:50.623Z,5.12
2019-02-16T04:14:23.119Z,10.85
2019-02-16T04:16:55.822Z,7.30
2019-02-16T04:19:28.195Z,10.70
2019-02-16T04:22:00.977Z,4.12
2019-02-16T04:24:33.354Z,5.35
2019-02-16T04:27:05.705Z,7.40
2019-02-16T04:29:38.186Z,10.08
2019-02-16T04:32:10.555Z,8.75
2019-02-16T04:34:42.922Z,8.75
2019-02-16T04:37:15.320Z,8.05
2019-02-16T04:39:47.761Z,5.05
2019-02-16T04:42:20.582Z,8.08
2019-02-16T04:44:52.954Z,6.10
2019-02-16T04:47:25.361Z,6.33
2019-02-16T04:49:57.717Z,4.33
2019-02-16T04:52:34.762Z,2.98
2019-02-16T04:55:03.930Z,8.30
2019-02-16T04:57:36.566Z,6.33
2019-02-16T05:00:10.909Z,5.83
2019-02-16T05:02:43.276Z,7.23
2019-02-16T05:05:15.660Z,7.62
2019-02-16T05:07:48.577Z,7.22
2019-02-16T05:10:21.415Z,6.10
2019-02-16T05:12:54.912Z,6.15
2019-02-16T05:15:27.005Z,8.63
2019-02-16T05:17:59.744Z,6.07
2019-02-16T05:20:32.210Z,6.42
2019-02-16T05:23:04.636Z,7.55
2019-02-16T05:25:37.132Z,8.03
2019-02-16T05:28:09.551Z,7.03
2019-02-16T05:30:42.063Z,9.28
2019-02-16T05:33:14.556Z,4.47
2019-02-16T05:35:47.430Z,6.42
2019-02-16T05:38:20.031Z,9.75
2019-02-16T05:40:52.469Z,11.28
2019-02-16T05:43:25.304Z,7.72
2019-02-16T05:45:57.825Z,4.92
2019-02-16T05:48:32.538Z,4.57
2019-02-16T05:53:35.924Z,5.05
2019-02-16T05:56:08.344Z,7.70
2019-02-16T05:58:40.959Z,7.67
2019-02-16T06:01:16.134Z,9.28
2019-02-16T06:03:48.738Z,7.53
2019-02-16T06:06:21.127Z,16.42
2019-02-16T06:08:54.238Z,6.22
2019-02-16T06:11:26.551Z,5.80
2019-02-16T06:13:58.940Z,5.90
2019-02-16T06:16:32.510Z,10.80
2019-02-16T06:19:04.687Z,3.80
2019-02-16T06:21:44.998Z,6.67
2019-02-16T06:24:21.523Z,10.23
2019-02-16T06:26:53.900Z,11.10
2019-02-16T06:29:26.407Z,6.08
2019-02-16T06:31:59.562Z,8.93
2019-02-16T06:34:32.535Z,6.97
2019-02-16T06:37:20.434Z,7.22
2019-02-16T06:39:53.048Z,6.93
2019-02-16T06:42:25.488Z,8.23
2019-02-16T06:44:57.940Z,5.00
2019-02-16T06:47:31.048Z,5.83
2019-02-16T06:50:15.270Z,4.85
2019-02-16T06:52:47.790Z,4.70
2019-02-16T06:55:20.649Z,7.67
2019-02-16T06:57:54.901Z,6.35
2019-02-16T07:00:29.016Z,7.07
2019-02-16T07:03:01.992Z,12.90
2019-02-16T07:08:05.517Z,6.05
2019-02-16T07:10:38.065Z,4.65
2019-02-16T07:13:10.475Z,6.67
2019-02-16T07:15:44.516Z,8.05
2019-02-16T07:18:27.420Z,6.13
2019-02-16T07:20:59.964Z,6.03
2019-02-16T07:23:32.305Z,6.12
2019-02-16T07:26:05.019Z,3.83
2019-02-16T07:28:37.434Z,5.60
2019-02-16T07:31:09.856Z,8.45
2019-02-16T07:33:42.251Z,8.95
2019-02-16T07:36:14.650Z,5.15
2019-02-16T07:38:47.078Z,4.90
2019-02-16T07:41:19.552Z,9.50
2019-02-16T07:44:22.855Z,10.80
2019-02-16T07:47:20.149Z,6.47
2019-02-16T07:50:00.778Z,5.17
2019-02-16T07:52:46.113Z,8.27
2019-02-16T07:55:42.962Z,3.97
2019-02-16T07:58:34.274Z,5.53
2019-02-16T08:01:18.135Z,6.87
2019-02-16T08:04:07.404Z,7.43
2019-02-16T08:07:04.313Z,7.30
2019-02-16T08:09:53.734Z,5.00
2019-02-16T08:12:34.593Z,9.20
2019-02-16T08:15:35.073Z,12.93
2019-02-16T08:18:34.925Z,9.17
2019-02-16T08:21:24.850Z,4.50
2019-02-16T08:24:17.212Z,10.60
2019-02-16T08:27:14.586Z,7.57
2019-02-16T08:30:08.914Z,10.00
2019-02-16T08:32:54.495Z,10.80
2019-02-16T08:35:33.883Z,12.40
2019-02-16T08:38:27.543Z,10.83
2019-02-16T08:41:30.516Z,9.43
2019-02-16T08:44:22.105Z,11.05
2019-02-16T08:47:06.956Z,10.83
2019-02-16T08:50:03.820Z,10.47
2019-02-16T08:52:53.789Z,13.50
2019-02-16T08:55:41.148Z,10.93
2019-02-16T08:58:31.106Z,11.03
2019-02-16T09:01:21.181Z,15.13
2019-02-16T09:04:07.490Z,16.07
2019-02-16T09:06:59.763Z,15.47
2019-02-16T09:09:50.290Z,14.33
2019-02-16T09:12:32.137Z,15.33
2019-02-16T09:15:35.482Z,19.80
2019-02-16T09:18:25.898Z,14.07
2019-02-16T09:21:19.817Z,16.23
2019-02-16T09:24:08.914Z,24.57
2019-02-16T09:27:20.332Z,21.33
2019-02-16T09:30:15.425Z,16.70
2019-02-16T09:32:52.940Z,19.17
2019-02-16T09:35:49.928Z,19.33
2019-02-16T09:38:35.972Z,18.63
2019-02-16T09:41:30.192Z,23.57
2019-02-16T09:44:20.184Z,21.37
2019-02-16T09:47:10.410Z,19.10
2019-02-16T09:49:49.095Z,22.23
2019-02-16T09:52:28.014Z,21.87
2019-02-16T09:55:19.840Z,23.75
2019-02-16T09:58:00.475Z,25.68
2019-02-16T10:00:55.127Z,19.75
2019-02-16T10:03:34.057Z,21.12
2019-02-16T10:06:24.606Z,20.30
2019-02-16T10:09:12.021Z,21.80
2019-02-16T10:12:04.135Z,22.55
2019-02-16T10:14:55.913Z,22.20
2019-02-16T10:17:39.665Z,22.60
2019-02-16T10:20:40.359Z,21.15
2019-02-16T10:23:23.175Z,20.15
2019-02-16T10:26:26.696Z,20.60
2019-02-16T10:29:26.022Z,21.95
2019-02-16T10:32:08.158Z,24.20
2019-02-16T10:34:58.346Z,26.60
2019-02-16T10:37:56.243Z,20.60
2019-02-16T10:40:51.817Z,18.85
2019-02-16T10:43:35.699Z,21.42
2019-02-16T10:49:38.604Z,22.40
2019-02-16T10:52:32.986Z,24.57
2019-02-16T10:55:24.969Z,26.85
2019-02-16T10:58:19.691Z,25.60
2019-02-16T11:01:07.549Z,22.75
2019-02-16T11:03:59.384Z,23.00
2019-02-16T11:06:51.304Z,26.65
2019-02-16T11:09:41.931Z,21.07
2019-02-16T11:12:41.829Z,19.07
2019-02-16T11:15:53.235Z,24.63
2019-02-16T11:18:45.319Z,20.43
2019-02-16T11:21:42.932Z,21.00
2019-02-16T11:24:38.466Z,22.42
2019-02-16T11:27:32.917Z,20.45
2019-02-16T11:30:29.284Z,21.45
2019-02-16T11:33:08.498Z,24.50
2019-02-16T11:36:00.163Z,19.50
2019-02-16T11:38:49.702Z,22.25
2019-02-16T11:41:34.601Z,21.87
2019-02-16T11:44:29.490Z,20.90
2019-02-16T11:47:22.523Z,22.60
2019-02-16T11:50:05.656Z,19.27
2019-02-16T11:53:12.094Z,20.37
2019-02-16T11:56:02.849Z,18.67
2019-02-16T11:58:55.298Z,19.42
2019-02-16T12:01:43.803Z,20.80
2019-02-16T12:04:41.667Z,16.48
2019-02-16T12:07:26.290Z,17.25
2019-02-16T12:10:27.300Z,15.30
2019-02-16T12:13:18.813Z,15.80
2019-02-16T12:16:10.505Z,18.80
2019-02-16T12:19:01.334Z,16.77
2019-02-16T12:21:51.831Z,16.17
2019-02-16T12:25:04.989Z,17.25
2019-02-16T12:27:47.952Z,17.40
2019-02-16T12:30:49.084Z,17.98
2019-02-16T12:33:47.492Z,16.40
2019-02-16T12:36:30.934Z,16.62
2019-02-16T12:39:28.113Z,14.33
2019-02-16T12:42:07.997Z,16.10
2019-02-16T12:44:56.604Z,15.10
2019-02-16T12:47:47.484Z,15.20
2019-02-16T12:50:39.545Z,16.65
2019-02-16T12:53:34.236Z,13.28
2019-02-16T12:56:24.740Z,14.30
2019-02-16T12:59:20.063Z,14.05
2019-02-16T13:02:10.581Z,16.97
2019-02-16T13:05:13.696Z,14.47
2019-02-16T13:07:59.445Z,16.15
2019-02-16T13:10:53.741Z,14.87
2019-02-16T13:13:43.565Z,16.03
2019-02-16T13:16:40.874Z,17.13
2019-02-16T13:19:38.599Z,14.53
2019-02-16T13:22:30.679Z,13.37
2019-02-16T13:25:24.384Z,14.55
2019-02-16T13:28:18.120Z,16.75
2019-02-16T13:31:04.963Z,14.53
2019-02-16T13:33:50.088Z,14.97
2019-02-16T13:36:29.695Z,14.53
2019-02-16T13:39:16.389Z,15.83
2019-02-16T13:41:58.381Z,15.18
2019-02-16T13:44:55.463Z,16.33
2019-02-16T13:47:31.357Z,15.67
2019-02-16T13:50:12.435Z,16.63
2019-02-16T13:53:16.260Z,18.33
2019-02-16T13:56:07.929Z,13.50
2019-02-16T13:58:59.254Z,18.23
2019-02-16T14:01:53.686Z,15.73
2019-02-16T14:04:54.192Z,15.27
2019-02-16T14:07:58.112Z,16.37
2019-02-16T14:10:52.719Z,17.27
2019-02-16T14:13:44.778Z,12.30
2019-02-16T14:16:38.403Z,17.13
2019-02-16T14:19:11.885Z,15.97
2019-02-16T14:21:44.299Z,18.40
2019-02-16T14:24:18.291Z,18.98
2019-02-16T14:26:55.101Z,18.80
2019-02-16T14:29:27.946Z,14.30
2019-02-16T14:32:03.223Z,17.50
2019-02-16T14:34:39.090Z,15.77
2019-02-16T14:37:29.736Z,18.77
2019-02-16T14:40:02.281Z,16.37
2019-02-16T14:42:35.295Z,16.50
2019-02-16T14:47:40.338Z,19.32
2019-02-16T14:50:12.617Z,18.27
2019-02-16T14:52:45.065Z,15.70
2019-02-16T14:55:17.459Z,16.50
2019-02-16T14:57:51.158Z,17.00
2019-02-16T15:00:23.634Z,16.00
2019-02-16T15:02:56.417Z,16.52
2019-02-16T15:05:28.872Z,16.57
2019-02-16T15:08:01.273Z,16.02
2019-02-16T15:10:33.827Z,15.93
2019-02-16T15:13:06.245Z,13.50
2019-02-16T15:15:39.751Z,14.40
2019-02-16T15:18:12.282Z,20.60
2019-02-16T15:20:44.761Z,13.78
2019-02-16T15:23:17.139Z,18.95
2019-02-16T15:25:49.536Z,15.20
2019-02-16T15:28:21.922Z,17.52
2019-02-16T15:30:54.377Z,17.37
2019-02-16T15:33:27.774Z,15.00
2019-02-16T15:36:02.012Z,15.97
2019-02-16T15:38:35.043Z,14.38
2019-02-16T15:43:38.383Z,15.45
2019-02-16T15:46:10.815Z,13.50
2019-02-16T15:48:43.703Z,16.85
2019-02-16T15:53:47.533Z,15.18
2019-02-16T15:56:21.610Z,16.52
2019-02-16T15:58:55.406Z,19.27
2019-02-16T16:01:28.126Z,18.85
2019-02-16T16:04:00.620Z,18.62
2019-02-16T16:06:33.747Z,18.00
2019-02-16T16:09:34.429Z,14.98
2019-02-16T16:12:16.246Z,20.92
2019-02-16T16:14:56.238Z,18.15
2019-02-16T16:17:46.994Z,18.20
2019-02-16T16:20:41.862Z,17.12
2019-02-16T16:23:25.853Z,17.90
2019-02-16T16:26:23.913Z,19.10
2019-02-16T16:29:13.603Z,15.00
2019-02-16T16:31:53.311Z,12.85
2019-02-16T16:34:42.390Z,12.13
2019-02-16T16:37:33.602Z,12.50
2019-02-16T16:40:54.051Z,14.07
2019-02-16T16:43:44.199Z,15.18
2019-02-16T16:46:38.200Z,13.13
2019-02-16T16:49:29.895Z,14.25
2019-02-16T16:52:27.775Z,14.33
2019-02-16T16:55:15.100Z,14.93
2019-02-16T16:58:19.083Z,14.83
2019-02-16T17:01:16.280Z,13.00
2019-02-16T17:03:56.954Z,14.60
2019-02-16T17:07:03.802Z,17.52
2019-02-16T17:09:57.997Z,12.07
2019-02-16T17:13:05.073Z,15.70
2019-02-16T17:15:59.330Z,13.85
2019-02-16T17:18:58.869Z,15.95
2019-02-16T17:21:45.103Z,14.05
2019-02-16T17:24:55.180Z,16.67
2019-02-16T17:27:35.158Z,15.05
2019-02-16T17:30:34.902Z,18.50
2019-02-16T17:33:29.188Z,19.23
2019-02-16T17:36:21.008Z,13.40
2019-02-16T17:39:25.418Z,18.07
2019-02-16T17:42:20.003Z,17.25
2019-02-16T17:45:10.288Z,13.53
2019-02-16T17:48:17.173Z,15.55
2019-02-16T17:50:57.539Z,15.15
2019-02-16T17:53:47.988Z,19.55
2019-02-16T17:56:46.840Z,16.32
2019-02-16T17:59:28.320Z,17.87
2019-02-16T18:02:19.810Z,17.98
2019-02-16T18:05:18.128Z,13.83
2019-02-16T18:08:08.510Z,15.53
2019-02-16T18:11:06.103Z,19.80
2019-02-16T18:13:56.897Z,17.70
2019-02-16T18:16:41.856Z,16.80
2019-02-16T18:19:21.373Z,17.55
2019-02-16T18:22:02.460Z,17.35
2019-02-16T18:24:57.242Z,20.00
2019-02-16T18:27:44.362Z,20.12
2019-02-16T18:30:39.120Z,19.80
2019-02-16T18:33:46.056Z,18.95
2019-02-16T18:36:28.138Z,20.48
2019-02-16T18:39:37.994Z,16.07
2019-02-16T18:42:29.519Z,18.90
2019-02-16T18:45:29.024Z,19.25
2019-02-16T18:48:24.644Z,17.15
2019-02-16T18:51:16.177Z,16.93
2019-02-16T18:54:07.803Z,19.07
2019-02-16T18:57:06.382Z,16.65
2019-02-16T19:00:03.015Z,19.57
2019-02-16T19:03:00.305Z,17.12
2019-02-16T19:05:50.726Z,19.42
2019-02-16T19:08:42.301Z,17.67
2019-02-16T19:11:39.880Z,21.20
2019-02-16T19:14:24.784Z,20.08
2019-02-16T19:17:22.446Z,16.85
2019-02-16T19:20:10.248Z,15.20
2019-02-16T19:23:09.013Z,19.90
2019-02-16T19:25:58.066Z,16.93
2019-02-16T19:28:42.219Z,17.82
2019-02-16T19:31:24.703Z,20.37
2019-02-16T19:34:31.433Z,22.02
2019-02-16T19:37:39.906Z,17.75
2019-02-16T19:40:28.285Z,21.25
2019-02-16T19:43:08.697Z,21.00
2019-02-16T19:46:00.293Z,16.37
2019-02-16T19:48:50.697Z,23.62
2019-02-16T19:51:51.477Z,22.15
2019-02-16T19:54:44.187Z,18.82
2019-02-16T19:57:54.747Z,15.45
2019-02-16T20:00:46.652Z,17.05
2019-02-16T20:03:41.608Z,19.15
2019-02-16T20:06:22.776Z,17.45
2019-02-16T20:09:20.549Z,14.68
2019-02-16T20:12:15.422Z,20.17
2019-02-16T20:15:01.349Z,20.97
2019-02-16T20:17:58.978Z,18.05
2019-02-16T20:21:02.659Z,19.65
2019-02-16T20:23:45.310Z,17.17
2019-02-16T20:26:35.610Z,20.62
2019-02-16T20:29:27.504Z,13.45
2019-02-16T20:32:34.548Z,19.98
2019-02-16T20:35:34.974Z,22.77
2019-02-16T20:38:25.391Z,17.75
2019-02-16T20:41:17.286Z,18.70
2019-02-16T20:44:12.268Z,18.75
2019-02-16T20:46:55.630Z,18.23
2019-02-16T20:49:48.390Z,14.50
2019-02-16T20:52:27.841Z,21.40
2019-02-16T20:55:17.496Z,23.00
2019-02-16T20:58:07.699Z,18.13
2019-02-16T21:01:01.217Z,11.57
2019-02-16T21:06:51.996Z,10.68
2019-02-16T21:09:32.145Z,17.73
2019-02-16T21:12:29.473Z,11.63
2019-02-16T21:15:10.993Z,15.73
2019-02-16T21:18:06.023Z,18.87
2019-02-16T21:21:06.196Z,16.13
2019-02-16T21:24:16.042Z,14.33
2019-02-16T21:27:06.825Z,13.97
2019-02-16T21:30:03.059Z,16.83
2019-02-16T21:32:58.320Z,17.10
2019-02-16T21:35:48.582Z,15.13
2019-02-16T21:38:44.148Z,16.37
2019-02-16T21:41:50.970Z,13.07
2019-02-16T21:44:45.214Z,12.27
2019-02-16T21:47:39.324Z,16.53
2019-02-16T21:50:31.332Z,12.77
2019-02-16T21:53:34.949Z,15.40
2019-02-16T21:56:24.553Z,12.30
2019-02-16T21:59:21.642Z,17.77
2019-02-16T22:02:19.811Z,16.33
2019-02-16T22:05:02.480Z,10.90
2019-02-16T22:07:52.882Z,13.68
2019-02-16T22:10:34.116Z,15.77
2019-02-16T22:13:09.149Z,14.27
2019-02-16T22:15:41.384Z,15.43
2019-02-16T22:18:13.875Z,12.30
2019-02-16T22:20:46.330Z,13.45
2019-02-16T22:23:18.927Z,12.63
2019-02-16T22:25:51.420Z,20.48
2019-02-16T22:28:30.893Z,15.60
2019-02-16T22:30:58.782Z,17.57
2019-02-16T22:33:31.428Z,12.90
2019-02-16T22:36:03.788Z,10.70
2019-02-16T22:38:36.591Z,15.77
2019-02-16T22:41:08.688Z,11.78
2019-02-16T22:43:40.943Z,18.20
2019-02-16T22:46:14.092Z,15.20
2019-02-16T22:48:46.489Z,16.32
2019-02-16T22:51:19.337Z,11.78
2019-02-16T22:53:53.406Z,18.82
2019-02-16T22:56:25.634Z,13.60
2019-02-16T22:59:00.509Z,12.98
2019-02-16T23:01:32.752Z,14.43
2019-02-16T23:04:06.203Z,10.25
2019-02-16T23:06:38.650Z,12.10
2019-02-16T23:09:21.242Z,15.40
2019-02-16T23:11:53.657Z,11.45
2019-02-16T23:14:26.232Z,15.23
2019-02-16T23:16:58.768Z,13.48
2019-02-16T23:19:31.328Z,13.60
2019-02-16T23:22:03.671Z,6.58
2019-02-16T23:24:35.767Z,14.60
2019-02-16T23:27:07.951Z,14.53
2019-02-16T23:29:40.682Z,14.20
2019-02-16T23:32:13.117Z,14.68
2019-02-16T23:34:45.494Z,12.98
2019-02-16T23:37:17.656Z,10.70
2019-02-16T23:39:49.799Z,18.30
2019-02-16T23:42:22.160Z,13.30
2019-02-16T23:44:55.059Z,10.88
2019-02-16T23:47:27.401Z,14.47
2019-02-16T23:49:59.488Z,9.03
2019-02-16T23:52:31.552Z,12.83
2019-02-16T23:55:03.812Z,11.20
2019-02-16T23:57:36.222Z,9.23
